AAY1534 KBNA-KSRQ
Flight info
| Callsign | AAY1534 |
|---|---|
| Flight time | 1h 35m |
| Altitude | 37000 |
| Route | FLAME4 GENDE DRSDN ACORI BANGZ2 |
| Aircraft | A320/M-SDE3FGHIRWY/LB1 |
Departure
| Time | 2026-04-25 02:03 |
|---|---|
| Airport | Nashville International Airport (KBNA) |
Arrival
| Time | 2026-04-25 03:38 |
|---|---|
| Airport | Sarasota Bradenton International Airport (KSRQ) |
| Time | Latitude | Longitude | Altitude | Speed | Heading |
|---|---|---|---|---|---|
| 2026-04-25 01:38 | 36.12746 | -86.67284 | 575 ft | 0 kts | 186° |
| 2026-04-25 01:57 | 36.12761 | -86.67282 | 577 ft | 4 kts | 189° |
| 2026-04-25 01:57 | 36.12787 | -86.67274 | 575 ft | 4 kts | 206° |
| 2026-04-25 01:57 | 36.12804 | -86.67258 | 580 ft | 4 kts | 279° |
| 2026-04-25 01:58 | 36.12801 | -86.67247 | 578 ft | 1 kts | 313° |
| 2026-04-25 01:58 | 36.12800 | -86.67247 | 578 ft | 0 kts | 313° |
| 2026-04-25 02:01 | 36.12806 | -86.67256 | 579 ft | 7 kts | 305° |
| 2026-04-25 02:01 | 36.12760 | -86.67383 | 577 ft | 29 kts | 221° |
| 2026-04-25 02:01 | 36.12586 | -86.67526 | 577 ft | 27 kts | 216° |
| 2026-04-25 02:01 | 36.12453 | -86.67665 | 577 ft | 19 kts | 209° |
| 2026-04-25 02:02 | 36.12362 | -86.67737 | 578 ft | 13 kts | 253° |
| 2026-04-25 02:02 | 36.12378 | -86.67847 | 577 ft | 14 kts | 289° |
| 2026-04-25 02:02 | 36.12382 | -86.67963 | 575 ft | 15 kts | 220° |
| 2026-04-25 02:02 | 36.12275 | -86.68019 | 575 ft | 21 kts | 199° |
| 2026-04-25 02:03 | 36.11911 | -86.68168 | 575 ft | 91 kts | 198° |
| 2026-04-25 02:03 | 36.11105 | -86.68485 | 574 ft | 149 kts | 198° |
| 2026-04-25 02:03 | 36.10011 | -86.68917 | 944 ft | 166 kts | 198° |
| 2026-04-25 02:03 | 36.08916 | -86.69311 | 1732 ft | 162 kts | 200° |
| 2026-04-25 02:04 | 36.07841 | -86.69695 | 2484 ft | 164 kts | 201° |
| 2026-04-25 02:04 | 36.06696 | -86.70139 | 2842 ft | 181 kts | 202° |
| 2026-04-25 02:04 | 36.05442 | -86.70654 | 3166 ft | 202 kts | 201° |
| 2026-04-25 02:04 | 36.04013 | -86.71197 | 3508 ft | 225 kts | 200° |
| 2026-04-25 02:05 | 36.02456 | -86.71784 | 4005 ft | 244 kts | 199° |
| 2026-04-25 02:05 | 36.00773 | -86.72417 | 4621 ft | 258 kts | 199° |
| 2026-04-25 02:05 | 35.99042 | -86.73065 | 5462 ft | 262 kts | 199° |
| 2026-04-25 02:05 | 35.97286 | -86.73725 | 6331 ft | 265 kts | 199° |
| 2026-04-25 02:06 | 35.95509 | -86.74395 | 7139 ft | 269 kts | 199° |
| 2026-04-25 02:06 | 35.93655 | -86.74832 | 7948 ft | 276 kts | 187° |
| 2026-04-25 02:06 | 35.91724 | -86.74970 | 8756 ft | 280 kts | 187° |
| 2026-04-25 02:06 | 35.89762 | -86.75105 | 9570 ft | 284 kts | 187° |
| 2026-04-25 02:07 | 35.87773 | -86.75242 | 10295 ft | 290 kts | 187° |
| 2026-04-25 02:07 | 35.85680 | -86.75391 | 10562 ft | 313 kts | 187° |
| 2026-04-25 02:07 | 35.83428 | -86.75552 | 10849 ft | 333 kts | 186° |
| 2026-04-25 02:07 | 35.81116 | -86.75711 | 11430 ft | 341 kts | 186° |
| 2026-04-25 02:08 | 35.78731 | -86.75873 | 12105 ft | 346 kts | 186° |
| 2026-04-25 02:08 | 35.76329 | -86.76039 | 12799 ft | 350 kts | 186° |
| 2026-04-25 02:08 | 35.73862 | -86.76213 | 13480 ft | 355 kts | 186° |
| 2026-04-25 02:08 | 35.71349 | -86.76390 | 14099 ft | 360 kts | 186° |
| 2026-04-25 02:09 | 35.68870 | -86.76561 | 14663 ft | 364 kts | 186° |
| 2026-04-25 02:09 | 35.66324 | -86.76734 | 15254 ft | 368 kts | 186° |
| 2026-04-25 02:09 | 35.63751 | -86.76912 | 15842 ft | 373 kts | 186° |
| 2026-04-25 02:09 | 35.61147 | -86.77093 | 16419 ft | 377 kts | 186° |
| 2026-04-25 02:10 | 35.58513 | -86.77279 | 16991 ft | 381 kts | 186° |
| 2026-04-25 02:10 | 35.55853 | -86.77467 | 17559 ft | 386 kts | 186° |
| 2026-04-25 02:10 | 35.53159 | -86.77658 | 18120 ft | 390 kts | 186° |
| 2026-04-25 02:10 | 35.50437 | -86.77847 | 18621 ft | 393 kts | 186° |
| 2026-04-25 02:11 | 35.47698 | -86.78034 | 19151 ft | 395 kts | 186° |
| 2026-04-25 02:11 | 35.44949 | -86.78218 | 19693 ft | 397 kts | 185° |
| 2026-04-25 02:11 | 35.42182 | -86.78400 | 20231 ft | 399 kts | 185° |
| 2026-04-25 02:11 | 35.39406 | -86.78583 | 20761 ft | 400 kts | 185° |
| 2026-04-25 02:12 | 35.36639 | -86.78766 | 21286 ft | 402 kts | 185° |
| 2026-04-25 02:12 | 35.33823 | -86.78953 | 21803 ft | 404 kts | 185° |
| 2026-04-25 02:12 | 35.31016 | -86.79141 | 22321 ft | 405 kts | 185° |
| 2026-04-25 02:12 | 35.28191 | -86.79329 | 22804 ft | 407 kts | 185° |
| 2026-04-25 02:13 | 35.25355 | -86.79522 | 23297 ft | 409 kts | 185° |
| 2026-04-25 02:13 | 35.22501 | -86.79715 | 23729 ft | 411 kts | 185° |
| 2026-04-25 02:13 | 35.19639 | -86.79906 | 24122 ft | 413 kts | 185° |
| 2026-04-25 02:13 | 35.16761 | -86.80098 | 24498 ft | 415 kts | 185° |
| 2026-04-25 02:14 | 35.13866 | -86.80290 | 24872 ft | 418 kts | 185° |
| 2026-04-25 02:14 | 35.10956 | -86.80483 | 25259 ft | 420 kts | 185° |
| 2026-04-25 02:14 | 35.08032 | -86.80680 | 25622 ft | 422 kts | 185° |
| 2026-04-25 02:14 | 35.05095 | -86.80877 | 25978 ft | 424 kts | 185° |
| 2026-04-25 02:15 | 35.02106 | -86.81077 | 26335 ft | 426 kts | 185° |
| 2026-04-25 02:15 | 34.99136 | -86.81271 | 26690 ft | 428 kts | 185° |
| 2026-04-25 02:15 | 34.96191 | -86.81463 | 27025 ft | 430 kts | 185° |
| 2026-04-25 02:15 | 34.93196 | -86.81659 | 27355 ft | 432 kts | 185° |
| 2026-04-25 02:16 | 34.90185 | -86.81860 | 27695 ft | 435 kts | 185° |
| 2026-04-25 02:16 | 34.87160 | -86.82062 | 28033 ft | 437 kts | 185° |
| 2026-04-25 02:16 | 34.84119 | -86.82265 | 28355 ft | 439 kts | 184° |
| 2026-04-25 02:16 | 34.81052 | -86.82190 | 28672 ft | 442 kts | 175° |
| 2026-04-25 02:17 | 34.78017 | -86.81505 | 28965 ft | 447 kts | 166° |
| 2026-04-25 02:17 | 34.74998 | -86.80365 | 29262 ft | 449 kts | 164° |
| 2026-04-25 02:17 | 34.72004 | -86.79226 | 29560 ft | 451 kts | 164° |
| 2026-04-25 02:17 | 34.69040 | -86.78113 | 29840 ft | 453 kts | 164° |
| 2026-04-25 02:18 | 34.65976 | -86.76973 | 30105 ft | 455 kts | 164° |
| 2026-04-25 02:18 | 34.62940 | -86.75844 | 30350 ft | 457 kts | 164° |
| 2026-04-25 02:18 | 34.59932 | -86.74722 | 30598 ft | 459 kts | 164° |
| 2026-04-25 02:18 | 34.56880 | -86.73581 | 30843 ft | 460 kts | 164° |
| 2026-04-25 02:19 | 34.53821 | -86.72434 | 31185 ft | 459 kts | 163° |
| 2026-04-25 02:19 | 34.50774 | -86.71292 | 31555 ft | 457 kts | 164° |
| 2026-04-25 02:19 | 34.47705 | -86.70142 | 31927 ft | 456 kts | 164° |
| 2026-04-25 02:19 | 34.44715 | -86.69024 | 32280 ft | 454 kts | 164° |
| 2026-04-25 02:20 | 34.41666 | -86.67886 | 32669 ft | 453 kts | 164° |
| 2026-04-25 02:20 | 34.38654 | -86.66767 | 33035 ft | 451 kts | 164° |
| 2026-04-25 02:20 | 34.35699 | -86.65671 | 33398 ft | 450 kts | 164° |
| 2026-04-25 02:20 | 34.32714 | -86.64562 | 33765 ft | 448 kts | 164° |
| 2026-04-25 02:21 | 34.29736 | -86.63452 | 34101 ft | 447 kts | 164° |
| 2026-04-25 02:21 | 34.26727 | -86.62332 | 34392 ft | 446 kts | 165° |
| 2026-04-25 02:21 | 34.23762 | -86.61228 | 34669 ft | 445 kts | 165° |
| 2026-04-25 02:21 | 34.20807 | -86.60128 | 34934 ft | 445 kts | 165° |
| 2026-04-25 02:22 | 34.17883 | -86.59044 | 35185 ft | 445 kts | 165° |
| 2026-04-25 02:22 | 34.14890 | -86.57938 | 35419 ft | 445 kts | 165° |
| 2026-04-25 02:22 | 34.11969 | -86.56859 | 35658 ft | 444 kts | 165° |
| 2026-04-25 02:22 | 34.08978 | -86.55753 | 35896 ft | 444 kts | 165° |
| 2026-04-25 02:23 | 34.06035 | -86.54669 | 36111 ft | 444 kts | 165° |
| 2026-04-25 02:23 | 34.03289 | -86.53655 | 36331 ft | 444 kts | 165° |
| 2026-04-25 02:23 | 34.00340 | -86.52566 | 36548 ft | 443 kts | 165° |
| 2026-04-25 02:23 | 33.98387 | -86.51845 | 36698 ft | 443 kts | 165° |
| 2026-04-25 02:24 | 33.94478 | -86.50402 | 36902 ft | 443 kts | 165° |
| 2026-04-25 02:24 | 33.89542 | -86.48579 | 36930 ft | 443 kts | 165° |
| 2026-04-25 02:25 | 33.83652 | -86.46411 | 36930 ft | 443 kts | 165° |
| 2026-04-25 02:25 | 33.77764 | -86.44246 | 36930 ft | 443 kts | 165° |
| 2026-04-25 02:26 | 33.71866 | -86.42083 | 36931 ft | 443 kts | 165° |
| 2026-04-25 02:26 | 33.65922 | -86.39913 | 36933 ft | 443 kts | 165° |
| 2026-04-25 02:27 | 33.60060 | -86.37766 | 36936 ft | 444 kts | 165° |
| 2026-04-25 02:27 | 33.54156 | -86.35608 | 36950 ft | 444 kts | 165° |
| 2026-04-25 02:28 | 33.48209 | -86.33442 | 36939 ft | 444 kts | 165° |
| 2026-04-25 02:28 | 33.42296 | -86.31292 | 36941 ft | 444 kts | 165° |
| 2026-04-25 02:29 | 33.36427 | -86.29157 | 36943 ft | 444 kts | 165° |
| 2026-04-25 02:29 | 33.30520 | -86.27010 | 36939 ft | 444 kts | 165° |
| 2026-04-25 02:30 | 33.24601 | -86.24860 | 36957 ft | 444 kts | 165° |
| 2026-04-25 02:30 | 33.18685 | -86.22714 | 36942 ft | 444 kts | 165° |
| 2026-04-25 02:31 | 33.12761 | -86.20573 | 36960 ft | 445 kts | 165° |
| 2026-04-25 02:31 | 33.06837 | -86.18441 | 36950 ft | 445 kts | 166° |
| 2026-04-25 02:32 | 33.00846 | -86.16663 | 36944 ft | 443 kts | 170° |
| 2026-04-25 02:32 | 32.94796 | -86.15243 | 36920 ft | 443 kts | 171° |
| 2026-04-25 02:33 | 32.88744 | -86.13819 | 36930 ft | 444 kts | 170° |
| 2026-04-25 02:33 | 32.82693 | -86.12292 | 36926 ft | 445 kts | 170° |
| 2026-04-25 02:34 | 32.76645 | -86.10730 | 36916 ft | 445 kts | 169° |
| 2026-04-25 02:34 | 32.70589 | -86.09177 | 36902 ft | 446 kts | 170° |
| 2026-04-25 02:35 | 32.64517 | -86.07643 | 36906 ft | 446 kts | 170° |
| 2026-04-25 02:35 | 32.58477 | -86.06126 | 36886 ft | 447 kts | 170° |
| 2026-04-25 02:36 | 32.52394 | -86.04595 | 36886 ft | 447 kts | 170° |
| 2026-04-25 02:36 | 32.46308 | -86.03056 | 36880 ft | 448 kts | 170° |
| 2026-04-25 02:37 | 32.40209 | -86.01524 | 36894 ft | 448 kts | 170° |
| 2026-04-25 02:37 | 32.34104 | -85.99986 | 36890 ft | 448 kts | 170° |
| 2026-04-25 02:38 | 32.27993 | -85.98451 | 36885 ft | 449 kts | 170° |
| 2026-04-25 02:38 | 32.21878 | -85.96925 | 36889 ft | 450 kts | 170° |
| 2026-04-25 02:39 | 32.15754 | -85.95395 | 36916 ft | 450 kts | 170° |
| 2026-04-25 02:39 | 32.09618 | -85.93859 | 36923 ft | 451 kts | 170° |
| 2026-04-25 02:40 | 32.03476 | -85.92328 | 36925 ft | 451 kts | 170° |
| 2026-04-25 02:40 | 31.97329 | -85.90798 | 36935 ft | 452 kts | 170° |
| 2026-04-25 02:41 | 31.91172 | -85.89263 | 36934 ft | 453 kts | 170° |
| 2026-04-25 02:41 | 31.85003 | -85.87729 | 36934 ft | 454 kts | 171° |
| 2026-04-25 02:42 | 31.78899 | -85.85797 | 36931 ft | 457 kts | 159° |
| 2026-04-25 02:42 | 31.73485 | -85.81862 | 36933 ft | 462 kts | 140° |
| 2026-04-25 02:43 | 31.68663 | -85.76856 | 36913 ft | 463 kts | 140° |
| 2026-04-25 02:43 | 31.63820 | -85.71873 | 36908 ft | 463 kts | 140° |
| 2026-04-25 02:44 | 31.58966 | -85.66889 | 36927 ft | 463 kts | 140° |
| 2026-04-25 02:44 | 31.54119 | -85.61904 | 36919 ft | 464 kts | 140° |
| 2026-04-25 02:45 | 31.49267 | -85.56913 | 36941 ft | 464 kts | 140° |
| 2026-04-25 02:45 | 31.44412 | -85.51928 | 36959 ft | 464 kts | 140° |
| 2026-04-25 02:46 | 31.39549 | -85.46950 | 36974 ft | 465 kts | 140° |
| 2026-04-25 02:46 | 31.34671 | -85.41977 | 36973 ft | 465 kts | 140° |
| 2026-04-25 02:47 | 31.29791 | -85.37001 | 36967 ft | 466 kts | 140° |
| 2026-04-25 02:47 | 31.24902 | -85.32016 | 36967 ft | 467 kts | 140° |
| 2026-04-25 02:48 | 31.20008 | -85.27024 | 36961 ft | 468 kts | 140° |
| 2026-04-25 02:48 | 31.15101 | -85.22026 | 36952 ft | 468 kts | 140° |
| 2026-04-25 02:49 | 31.10193 | -85.17039 | 36935 ft | 469 kts | 140° |
| 2026-04-25 02:49 | 31.05298 | -85.12076 | 36943 ft | 469 kts | 140° |
| 2026-04-25 02:50 | 31.00365 | -85.07082 | 36942 ft | 470 kts | 140° |
| 2026-04-25 02:50 | 30.95425 | -85.02091 | 36945 ft | 471 kts | 140° |
| 2026-04-25 02:51 | 30.90469 | -84.97087 | 36942 ft | 471 kts | 140° |
| 2026-04-25 02:51 | 30.85515 | -84.92089 | 36951 ft | 472 kts | 140° |
| 2026-04-25 02:52 | 30.80549 | -84.87084 | 36950 ft | 472 kts | 140° |
| 2026-04-25 02:52 | 30.75573 | -84.82088 | 36956 ft | 472 kts | 140° |
| 2026-04-25 02:53 | 30.70593 | -84.77112 | 36956 ft | 472 kts | 140° |
| 2026-04-25 02:53 | 30.65615 | -84.72126 | 36951 ft | 472 kts | 140° |
| 2026-04-25 02:54 | 30.60640 | -84.67138 | 36947 ft | 472 kts | 140° |
| 2026-04-25 02:54 | 30.55653 | -84.62163 | 36954 ft | 473 kts | 141° |
| 2026-04-25 02:55 | 30.50659 | -84.57196 | 36962 ft | 473 kts | 141° |
| 2026-04-25 02:55 | 30.45666 | -84.52225 | 36962 ft | 473 kts | 141° |
| 2026-04-25 02:56 | 30.40656 | -84.47242 | 36961 ft | 473 kts | 141° |
| 2026-04-25 02:56 | 30.35658 | -84.42279 | 36962 ft | 474 kts | 141° |
| 2026-04-25 02:57 | 30.30649 | -84.37313 | 36960 ft | 474 kts | 141° |
| 2026-04-25 02:57 | 30.25642 | -84.32347 | 36958 ft | 474 kts | 141° |
| 2026-04-25 02:58 | 30.20630 | -84.27381 | 36959 ft | 475 kts | 141° |
| 2026-04-25 02:58 | 30.15609 | -84.22409 | 36965 ft | 475 kts | 141° |
| 2026-04-25 02:59 | 30.10582 | -84.17447 | 36972 ft | 475 kts | 141° |
| 2026-04-25 02:59 | 30.05589 | -84.12518 | 36975 ft | 475 kts | 141° |
| 2026-04-25 03:00 | 30.00566 | -84.07560 | 36981 ft | 475 kts | 141° |
| 2026-04-25 03:00 | 29.95525 | -84.02602 | 36982 ft | 476 kts | 141° |
| 2026-04-25 03:01 | 29.90492 | -83.97667 | 36990 ft | 476 kts | 141° |
| 2026-04-25 03:01 | 29.85449 | -83.92715 | 36979 ft | 476 kts | 141° |
| 2026-04-25 03:02 | 29.80155 | -83.88197 | 36973 ft | 472 kts | 153° |
| 2026-04-25 03:02 | 29.74416 | -83.84500 | 36974 ft | 473 kts | 153° |
| 2026-04-25 03:03 | 29.68675 | -83.80803 | 36970 ft | 474 kts | 153° |
| 2026-04-25 03:03 | 29.62913 | -83.77091 | 36974 ft | 475 kts | 153° |
| 2026-04-25 03:03 | 29.60024 | -83.75232 | 36790 ft | 476 kts | 153° |
| 2026-04-25 03:04 | 29.57133 | -83.73373 | 36535 ft | 476 kts | 153° |
| 2026-04-25 03:04 | 29.54245 | -83.71519 | 36281 ft | 476 kts | 153° |
| 2026-04-25 03:04 | 29.51354 | -83.69661 | 36031 ft | 476 kts | 153° |
| 2026-04-25 03:05 | 29.45598 | -83.65969 | 34911 ft | 482 kts | 153° |
| 2026-04-25 03:05 | 29.42651 | -83.64086 | 33996 ft | 487 kts | 153° |
| 2026-04-25 03:05 | 29.39687 | -83.62195 | 33297 ft | 485 kts | 153° |
| 2026-04-25 03:05 | 29.36755 | -83.60326 | 32702 ft | 480 kts | 154° |
| 2026-04-25 03:06 | 29.33754 | -83.58730 | 32157 ft | 472 kts | 162° |
| 2026-04-25 03:06 | 29.30649 | -83.57591 | 31612 ft | 466 kts | 166° |
| 2026-04-25 03:06 | 29.27552 | -83.56545 | 31070 ft | 461 kts | 166° |
| 2026-04-25 03:06 | 29.24492 | -83.55508 | 30535 ft | 457 kts | 166° |
| 2026-04-25 03:07 | 29.21455 | -83.54478 | 30015 ft | 453 kts | 166° |
| 2026-04-25 03:07 | 29.18443 | -83.53457 | 29433 ft | 449 kts | 166° |
| 2026-04-25 03:07 | 29.15461 | -83.52445 | 28926 ft | 444 kts | 166° |
| 2026-04-25 03:07 | 29.12519 | -83.51445 | 28421 ft | 439 kts | 166° |
| 2026-04-25 03:08 | 29.09611 | -83.50462 | 27918 ft | 434 kts | 166° |
| 2026-04-25 03:08 | 29.06730 | -83.49491 | 27429 ft | 429 kts | 166° |
| 2026-04-25 03:08 | 29.03884 | -83.48535 | 26945 ft | 425 kts | 166° |
| 2026-04-25 03:08 | 29.01056 | -83.47583 | 26481 ft | 420 kts | 166° |
| 2026-04-25 03:09 | 28.98272 | -83.46635 | 26026 ft | 416 kts | 163° |
| 2026-04-25 03:09 | 28.96489 | -83.45846 | 25727 ft | 415 kts | 158° |
| 2026-04-25 03:09 | 28.93875 | -83.44484 | 25289 ft | 411 kts | 157° |
| 2026-04-25 03:09 | 28.90452 | -83.42704 | 24708 ft | 406 kts | 157° |
| 2026-04-25 03:10 | 28.88723 | -83.41810 | 24412 ft | 403 kts | 158° |
| 2026-04-25 03:10 | 28.86174 | -83.40495 | 23983 ft | 400 kts | 157° |
| 2026-04-25 03:10 | 28.83645 | -83.39193 | 23528 ft | 398 kts | 157° |
| 2026-04-25 03:10 | 28.81130 | -83.37897 | 23038 ft | 395 kts | 157° |
| 2026-04-25 03:11 | 28.78644 | -83.36613 | 22594 ft | 391 kts | 158° |
| 2026-04-25 03:11 | 28.76170 | -83.35337 | 22149 ft | 388 kts | 158° |
| 2026-04-25 03:11 | 28.73714 | -83.34073 | 21703 ft | 386 kts | 158° |
| 2026-04-25 03:11 | 28.71272 | -83.32819 | 21249 ft | 384 kts | 158° |
| 2026-04-25 03:12 | 28.68874 | -83.31586 | 20803 ft | 383 kts | 158° |
| 2026-04-25 03:12 | 28.66454 | -83.30343 | 20344 ft | 382 kts | 158° |
| 2026-04-25 03:12 | 28.64032 | -83.29098 | 19881 ft | 381 kts | 158° |
| 2026-04-25 03:12 | 28.61616 | -83.27856 | 19426 ft | 381 kts | 158° |
| 2026-04-25 03:13 | 28.59203 | -83.26616 | 18969 ft | 381 kts | 158° |
| 2026-04-25 03:13 | 28.56789 | -83.25377 | 18507 ft | 381 kts | 157° |
| 2026-04-25 03:13 | 28.54380 | -83.24136 | 18037 ft | 380 kts | 157° |
| 2026-04-25 03:13 | 28.51972 | -83.22896 | 17573 ft | 378 kts | 157° |
| 2026-04-25 03:14 | 28.49582 | -83.21669 | 17123 ft | 377 kts | 158° |
| 2026-04-25 03:14 | 28.47199 | -83.20446 | 16678 ft | 375 kts | 158° |
| 2026-04-25 03:14 | 28.44828 | -83.19231 | 16234 ft | 373 kts | 158° |
| 2026-04-25 03:14 | 28.42467 | -83.18022 | 15796 ft | 372 kts | 157° |
| 2026-04-25 03:15 | 28.40111 | -83.16818 | 15352 ft | 370 kts | 158° |
| 2026-04-25 03:15 | 28.37768 | -83.15623 | 14911 ft | 369 kts | 158° |
| 2026-04-25 03:15 | 28.35425 | -83.14445 | 14474 ft | 368 kts | 158° |
| 2026-04-25 03:15 | 28.33089 | -83.13279 | 14032 ft | 366 kts | 158° |
| 2026-04-25 03:16 | 28.30759 | -83.12121 | 13558 ft | 365 kts | 158° |
| 2026-04-25 03:16 | 28.28459 | -83.10909 | 13088 ft | 363 kts | 151° |
| 2026-04-25 03:16 | 28.26424 | -83.09253 | 12817 ft | 356 kts | 139° |
| 2026-04-25 03:16 | 28.24588 | -83.07441 | 12696 ft | 346 kts | 140° |
| 2026-04-25 03:17 | 28.22773 | -83.05673 | 12524 ft | 342 kts | 140° |
| 2026-04-25 03:17 | 28.20877 | -83.04068 | 12362 ft | 339 kts | 151° |
| 2026-04-25 03:17 | 28.18732 | -83.02988 | 12180 ft | 336 kts | 164° |
| 2026-04-25 03:17 | 28.16450 | -83.02490 | 12029 ft | 333 kts | 178° |
| 2026-04-25 03:18 | 28.14138 | -83.02391 | 11873 ft | 332 kts | 179° |
| 2026-04-25 03:18 | 28.11833 | -83.02295 | 11715 ft | 331 kts | 179° |
| 2026-04-25 03:18 | 28.09537 | -83.02192 | 11553 ft | 330 kts | 179° |
| 2026-04-25 03:18 | 28.07242 | -83.02085 | 11393 ft | 329 kts | 179° |
| 2026-04-25 03:19 | 28.04965 | -83.01980 | 11234 ft | 328 kts | 179° |
| 2026-04-25 03:19 | 28.02705 | -83.01877 | 11076 ft | 327 kts | 179° |
| 2026-04-25 03:19 | 28.00433 | -83.01773 | 10917 ft | 326 kts | 179° |
| 2026-04-25 03:19 | 27.98168 | -83.01671 | 10757 ft | 326 kts | 179° |
| 2026-04-25 03:20 | 27.95909 | -83.01570 | 10598 ft | 324 kts | 178° |
| 2026-04-25 03:20 | 27.93656 | -83.01470 | 10442 ft | 324 kts | 178° |
| 2026-04-25 03:20 | 27.91410 | -83.01369 | 10280 ft | 320 kts | 178° |
| 2026-04-25 03:20 | 27.89224 | -83.01270 | 10151 ft | 309 kts | 178° |
| 2026-04-25 03:21 | 27.87100 | -83.01176 | 9943 ft | 303 kts | 178° |
| 2026-04-25 03:21 | 27.85017 | -83.01086 | 9810 ft | 298 kts | 178° |
| 2026-04-25 03:21 | 27.82944 | -83.00994 | 9708 ft | 298 kts | 178° |
| 2026-04-25 03:21 | 27.80877 | -83.00847 | 9565 ft | 297 kts | 171° |
| 2026-04-25 03:22 | 27.78909 | -83.00182 | 9423 ft | 296 kts | 154° |
| 2026-04-25 03:22 | 27.77183 | -82.98938 | 9279 ft | 294 kts | 138° |
| 2026-04-25 03:22 | 27.75763 | -82.97284 | 9134 ft | 293 kts | 131° |
| 2026-04-25 03:22 | 27.74384 | -82.95588 | 8993 ft | 293 kts | 132° |
| 2026-04-25 03:23 | 27.73003 | -82.93899 | 8859 ft | 292 kts | 132° |
| 2026-04-25 03:23 | 27.71627 | -82.92225 | 8703 ft | 291 kts | 132° |
| 2026-04-25 03:23 | 27.70250 | -82.90552 | 8562 ft | 290 kts | 132° |
| 2026-04-25 03:23 | 27.69026 | -82.88764 | 8426 ft | 288 kts | 122° |
| 2026-04-25 03:24 | 27.67932 | -82.86865 | 8285 ft | 287 kts | 122° |
| 2026-04-25 03:24 | 27.66858 | -82.85005 | 8148 ft | 286 kts | 122° |
| 2026-04-25 03:24 | 27.65761 | -82.83111 | 8010 ft | 285 kts | 122° |
| 2026-04-25 03:24 | 27.64682 | -82.81247 | 7874 ft | 283 kts | 122° |
| 2026-04-25 03:25 | 27.63608 | -82.79393 | 7744 ft | 282 kts | 123° |
| 2026-04-25 03:25 | 27.62535 | -82.77545 | 7604 ft | 281 kts | 123° |
| 2026-04-25 03:25 | 27.61465 | -82.75704 | 7472 ft | 280 kts | 123° |
| 2026-04-25 03:25 | 27.60402 | -82.73873 | 7340 ft | 279 kts | 123° |
| 2026-04-25 03:26 | 27.59355 | -82.72069 | 7209 ft | 278 kts | 123° |
| 2026-04-25 03:26 | 27.58299 | -82.70252 | 7075 ft | 277 kts | 123° |
| 2026-04-25 03:26 | 27.57244 | -82.68434 | 6945 ft | 276 kts | 123° |
| 2026-04-25 03:26 | 27.56193 | -82.66628 | 6816 ft | 276 kts | 123° |
| 2026-04-25 03:27 | 27.55316 | -82.65125 | 6707 ft | 275 kts | 123° |
| 2026-04-25 03:27 | 27.54269 | -82.63328 | 6579 ft | 274 kts | 123° |
| 2026-04-25 03:27 | 27.53227 | -82.61541 | 6449 ft | 273 kts | 123° |
| 2026-04-25 03:27 | 27.52187 | -82.59757 | 6318 ft | 272 kts | 123° |
| 2026-04-25 03:28 | 27.51149 | -82.57974 | 6184 ft | 272 kts | 123° |
| 2026-04-25 03:28 | 27.50112 | -82.56199 | 6048 ft | 271 kts | 123° |
| 2026-04-25 03:28 | 27.49078 | -82.54428 | 5921 ft | 271 kts | 123° |
| 2026-04-25 03:28 | 27.48043 | -82.52656 | 5795 ft | 270 kts | 123° |
| 2026-04-25 03:29 | 27.47012 | -82.50892 | 5662 ft | 270 kts | 123° |
| 2026-04-25 03:29 | 27.45820 | -82.49268 | 5539 ft | 269 kts | 134° |
| 2026-04-25 03:29 | 27.44522 | -82.47753 | 5406 ft | 269 kts | 133° |
| 2026-04-25 03:29 | 27.43228 | -82.46238 | 5280 ft | 268 kts | 133° |
| 2026-04-25 03:30 | 27.41942 | -82.44728 | 5152 ft | 268 kts | 133° |
| 2026-04-25 03:30 | 27.40645 | -82.43206 | 5023 ft | 267 kts | 133° |
| 2026-04-25 03:30 | 27.39358 | -82.41699 | 4893 ft | 267 kts | 133° |
| 2026-04-25 03:30 | 27.38073 | -82.40196 | 4770 ft | 266 kts | 133° |
| 2026-04-25 03:31 | 27.36790 | -82.38698 | 4632 ft | 266 kts | 133° |
| 2026-04-25 03:31 | 27.35510 | -82.37201 | 4508 ft | 266 kts | 133° |
| 2026-04-25 03:31 | 27.34229 | -82.35703 | 4380 ft | 266 kts | 133° |
| 2026-04-25 03:31 | 27.32946 | -82.34202 | 4248 ft | 266 kts | 133° |
| 2026-04-25 03:32 | 27.31615 | -82.32756 | 3899 ft | 266 kts | 144° |
| 2026-04-25 03:32 | 27.29921 | -82.31992 | 3523 ft | 264 kts | 173° |
| 2026-04-25 03:32 | 27.28120 | -82.32239 | 3172 ft | 263 kts | 202° |
| 2026-04-25 03:32 | 27.26665 | -82.33431 | 2796 ft | 260 kts | 232° |
| 2026-04-25 03:33 | 27.25651 | -82.35099 | 2434 ft | 257 kts | 236° |
| 2026-04-25 03:33 | 27.24907 | -82.36873 | 2072 ft | 254 kts | 263° |
| 2026-04-25 03:33 | 27.25127 | -82.38719 | 2004 ft | 230 kts | 296° |
| 2026-04-25 03:33 | 27.26044 | -82.40103 | 2007 ft | 215 kts | 315° |
| 2026-04-25 03:34 | 27.27066 | -82.41261 | 2006 ft | 202 kts | 315° |
| 2026-04-25 03:34 | 27.28006 | -82.42329 | 2014 ft | 183 kts | 315° |
| 2026-04-25 03:34 | 27.28862 | -82.43305 | 1991 ft | 167 kts | 315° |
| 2026-04-25 03:34 | 27.29649 | -82.44203 | 2004 ft | 157 kts | 315° |
| 2026-04-25 03:35 | 27.30406 | -82.45067 | 2007 ft | 154 kts | 316° |
| 2026-04-25 03:35 | 27.31138 | -82.45902 | 2031 ft | 148 kts | 316° |
| 2026-04-25 03:35 | 27.31852 | -82.46718 | 1918 ft | 145 kts | 316° |
| 2026-04-25 03:35 | 27.32558 | -82.47523 | 1775 ft | 144 kts | 317° |
| 2026-04-25 03:36 | 27.33254 | -82.48323 | 1593 ft | 143 kts | 316° |
| 2026-04-25 03:36 | 27.33949 | -82.49124 | 1413 ft | 142 kts | 316° |
| 2026-04-25 03:36 | 27.34635 | -82.49920 | 1237 ft | 142 kts | 316° |
| 2026-04-25 03:36 | 27.35324 | -82.50708 | 1063 ft | 141 kts | 316° |
| 2026-04-25 03:37 | 27.36010 | -82.51493 | 892 ft | 141 kts | 316° |
| 2026-04-25 03:37 | 27.36686 | -82.52282 | 701 ft | 139 kts | 316° |
| 2026-04-25 03:37 | 27.37371 | -82.53053 | 511 ft | 139 kts | 317° |
| 2026-04-25 03:37 | 27.38053 | -82.53824 | 321 ft | 139 kts | 317° |
| 2026-04-25 03:38 | 27.38734 | -82.54595 | 94 ft | 138 kts | 317° |
| 2026-04-25 03:38 | 27.39367 | -82.55304 | 29 ft | 105 kts | 314° |
| 2026-04-25 03:38 | 27.39756 | -82.55755 | 30 ft | 59 kts | 314° |
| 2026-04-25 03:38 | 27.39949 | -82.55980 | 28 ft | 20 kts | 303° |
| 2026-04-25 03:39 | 27.39888 | -82.56049 | 30 ft | 14 kts | 181° |
| 2026-04-25 03:39 | 27.39815 | -82.55996 | 30 ft | 12 kts | 136° |
| 2026-04-25 03:39 | 27.39760 | -82.55934 | 31 ft | 10 kts | 135° |
| 2026-04-25 03:39 | 27.39700 | -82.55865 | 31 ft | 23 kts | 134° |
| 2026-04-25 03:40 | 27.39541 | -82.55689 | 31 ft | 30 kts | 136° |
| 2026-04-25 03:40 | 27.39417 | -82.55539 | 31 ft | 27 kts | 133° |
| 2026-04-25 03:40 | 27.39286 | -82.55388 | 30 ft | 27 kts | 137° |
| 2026-04-25 03:40 | 27.39154 | -82.55261 | 30 ft | 23 kts | 166° |
| 2026-04-25 03:41 | 27.39030 | -82.55259 | 31 ft | 13 kts | 167° |
| 2026-04-25 03:41 | 27.38966 | -82.55282 | 31 ft | 7 kts | 255° |
| 2026-04-25 03:41 | 27.38969 | -82.55319 | 31 ft | 0 kts | 281° |
| 2026-04-25 03:41 | 27.38969 | -82.55320 | 31 ft | 0 kts | 280° |